Bloomingdale, NJ (07403)

8:02 AM EST on February 10, 2016 (GMT -0500)
Bloomingdale | | Change Station
CLOSE
Current Station
Personal Weather Station
Location: Bloomingdale, NJ
Elevation: 466 ft
Nearby Weather Stations

Elev 466 ft 41.01 °N, 74.33 °W | Updated 2 minutes ago

Overcast
Overcast
32.1 °F
Feels Like 32 °F
N
0.0
Wind Variable Wind from West
Gusts 1.6 mph

Today
High -- | Low -- °F
--% Chance of Precip.
Yesterday
High -- | Low -- °F
Precip. -- in
Pressure 29.64 in
Visibility 3.0 miles
Clouds Overcast 5000 ft
Windchill 32 °F
Dew Point 28 °F
Humidity 84%
Rainfall 0.00 in
Snow Depth Not available.
6:58 AM 5:25 PM
Waxing Crescent, 5% visible
METAR KCDW 101253Z VRB04KT 3SM BR OVC050 00/M02 A2962 RMK AO2 SNE00 SLP037 P0000 T00001017
Pressure 29.64 in
Visibility 3.0 miles
Clouds Overcast 5000 ft
Windchill 32 °F
Dew Point 28 °F
Humidity 84%
Rainfall 0.00 in
Snow Depth Not available.
6:58 AM 5:25 PM
Waxing Crescent, 5% visible
METAR KCDW 101253Z VRB04KT 3SM BR OVC050 00/M02 A2962 RMK AO2 SNE00 SLP037 P0000 T00001017

10-Day Weather Forecast

Almanac

Astronomy

Feb. 10, 2016 Rise Set
Actual Time
Civil Twilight
Nautical Twilight
Astronomical Twilight
Moon
Length of Visible Light
Length of Day
Tomorrow will be .
, % of the Moon is Illuminated

Today's Extremes

State Highs State Lows

Community

WunderPhotos

Upload Photos

1,891,838 photos uploaded!

WunderBlog® & News

Nearby

Air Quality

  Air Quality AQ Index Pollutant
Not available.

Snow Depth

Station Depth Elevation

Earthquake Activity

City Distance Mag. Time & Date
Minimum magnitude displayed is 2.5.

Coastal Water Temperatures

Place Temperature

Stations

Nearby Weather Stations

Station Location Temp. Windchill Dew Point Humidity Wind Precip. Elev Updated Type
                   

Watches & Warnings

There are currently no watches in effect.